createdAt,value
2022-11-29T00:02:47.007Z,2.67
2022-11-29T00:05:48.674Z,2.67
2022-11-29T00:08:50.413Z,2.95
2022-11-29T00:12:10.765Z,2.63
2022-11-29T00:15:12.350Z,3.00
2022-11-29T00:18:14.102Z,3.08
2022-11-29T00:21:15.731Z,2.70
2022-11-29T00:24:17.677Z,2.45
2022-11-29T00:27:19.292Z,2.92
2022-11-29T00:30:21.519Z,2.63
2022-11-29T00:33:23.120Z,2.92
2022-11-29T00:36:25.141Z,2.90
2022-11-29T00:39:27.172Z,2.95
2022-11-29T00:42:28.758Z,2.55
2022-11-29T00:45:30.371Z,2.47
2022-11-29T00:48:32.597Z,3.00
2022-11-29T00:51:34.285Z,2.88
2022-11-29T00:54:35.914Z,3.13
2022-11-29T00:57:37.556Z,2.80
2022-11-29T01:00:39.144Z,2.90
2022-11-29T01:03:40.925Z,2.25
2022-11-29T01:06:42.522Z,2.63
2022-11-29T01:09:44.085Z,2.13
2022-11-29T01:12:45.806Z,2.40
2022-11-29T01:15:55.804Z,2.40
2022-11-29T01:18:57.398Z,2.80
2022-11-29T01:21:59.059Z,2.92
2022-11-29T01:25:00.804Z,2.83
2022-11-29T01:28:02.444Z,2.45
2022-11-29T01:31:12.586Z,2.60
2022-11-29T01:34:14.284Z,2.58
2022-11-29T01:37:16.262Z,2.22
2022-11-29T01:40:18.495Z,2.65
2022-11-29T01:43:21.075Z,2.83
2022-11-29T01:46:23.089Z,2.38
2022-11-29T01:49:30.518Z,2.50
2022-11-29T01:52:32.953Z,2.80
2022-11-29T01:55:39.152Z,2.17
2022-11-29T01:58:45.227Z,2.55
2022-11-29T02:01:46.912Z,2.42
2022-11-29T02:04:49.609Z,2.30
2022-11-29T02:07:54.823Z,2.38
2022-11-29T02:11:31.982Z,2.15
2022-11-29T02:14:33.526Z,2.35
2022-11-29T02:18:04.489Z,2.35
2022-11-29T02:21:16.620Z,2.42
2022-11-29T02:24:27.436Z,2.30
2022-11-29T02:27:51.521Z,1.92
2022-11-29T02:31:01.864Z,2.42
2022-11-29T02:34:06.599Z,2.20
2022-11-29T02:37:36.999Z,2.60
2022-11-29T02:41:22.504Z,2.50
2022-11-29T02:44:30.078Z,2.63
2022-11-29T02:47:44.451Z,3.10
2022-11-29T02:51:07.046Z,3.05
2022-11-29T02:54:43.011Z,2.15
2022-11-29T02:57:49.563Z,2.30
2022-11-29T03:01:06.812Z,2.42
2022-11-29T03:04:27.180Z,2.60
2022-11-29T03:08:09.242Z,2.45
2022-11-29T03:11:29.466Z,2.60
2022-11-29T03:14:49.951Z,2.63
2022-11-29T03:18:22.610Z,2.40
2022-11-29T03:21:56.230Z,2.60
2022-11-29T03:25:12.432Z,3.00
2022-11-29T03:28:21.947Z,2.50
2022-11-29T03:31:26.593Z,2.45
2022-11-29T03:34:47.447Z,2.20
2022-11-29T03:37:58.803Z,2.53
2022-11-29T03:41:32.694Z,2.38
2022-11-29T03:44:59.297Z,1.92
2022-11-29T03:48:05.405Z,2.60
2022-11-29T03:51:11.291Z,1.85
2022-11-29T03:54:58.561Z,2.40
2022-11-29T03:58:18.942Z,2.70
2022-11-29T04:01:59.177Z,2.30
2022-11-29T04:05:28.227Z,2.00
2022-11-29T04:09:03.346Z,1.95
2022-11-29T04:12:32.265Z,2.50
2022-11-29T04:15:49.120Z,2.05
2022-11-29T04:18:56.939Z,2.20
2022-11-29T04:22:17.532Z,2.45
2022-11-29T04:25:34.271Z,2.40
2022-11-29T04:29:01.737Z,2.35
2022-11-29T04:35:33.108Z,1.77
2022-11-29T04:39:13.315Z,2.50
2022-11-29T04:42:20.862Z,2.35
2022-11-29T04:45:43.781Z,3.08
2022-11-29T04:49:05.443Z,2.40
2022-11-29T04:52:17.068Z,4.72
2022-11-29T04:56:03.891Z,3.03
2022-11-29T04:59:23.853Z,3.00
2022-11-29T05:02:40.615Z,2.40
2022-11-29T05:05:51.104Z,2.70
2022-11-29T05:09:00.003Z,3.60
2022-11-29T05:12:48.423Z,7.50
2022-11-29T05:15:50.536Z,5.18
2022-11-29T05:19:11.683Z,3.55
2022-11-29T05:22:32.887Z,3.20
2022-11-29T05:26:01.499Z,3.45
2022-11-29T05:29:42.266Z,3.10
2022-11-29T05:33:37.756Z,3.35
2022-11-29T05:36:57.837Z,3.53
2022-11-29T05:40:27.449Z,3.08
2022-11-29T05:43:41.333Z,3.20
2022-11-29T05:46:55.800Z,3.25
2022-11-29T05:50:12.889Z,3.30
2022-11-29T05:56:48.594Z,4.28
2022-11-29T05:59:51.931Z,4.60
2022-11-29T06:03:12.328Z,4.78
2022-11-29T06:06:22.887Z,4.40
2022-11-29T06:09:37.742Z,3.92
2022-11-29T06:12:42.727Z,3.30
2022-11-29T06:15:46.199Z,3.20
2022-11-29T06:18:53.528Z,2.80
2022-11-29T06:22:32.325Z,2.85
2022-11-29T06:25:44.243Z,3.80
2022-11-29T06:29:04.657Z,3.92
2022-11-29T06:32:40.305Z,3.15
2022-11-29T06:36:14.672Z,7.93
2022-11-29T06:39:16.677Z,4.25
2022-11-29T06:42:18.503Z,3.88
2022-11-29T06:45:21.851Z,3.08
2022-11-29T06:48:27.275Z,4.88
2022-11-29T06:51:51.971Z,4.43
2022-11-29T06:55:12.603Z,4.28
2022-11-29T06:58:24.459Z,7.30
2022-11-29T07:02:13.505Z,7.22
2022-11-29T07:05:22.084Z,5.50
2022-11-29T07:08:24.489Z,4.03
2022-11-29T07:11:27.449Z,5.90
2022-11-29T07:14:29.441Z,3.88
2022-11-29T07:18:07.710Z,3.60
2022-11-29T07:21:12.631Z,3.47
2022-11-29T07:24:41.957Z,3.30
2022-11-29T07:28:19.801Z,2.85
2022-11-29T07:37:07.291Z,3.63
2022-11-29T07:40:19.484Z,4.10
2022-11-29T07:43:33.390Z,4.05
2022-11-29T07:46:35.051Z,3.33
2022-11-29T07:49:36.733Z,3.00
2022-11-29T07:52:38.640Z,2.83
2022-11-29T07:55:40.446Z,6.28
2022-11-29T07:58:42.962Z,3.10
2022-11-29T08:01:44.779Z,3.65
2022-11-29T08:04:46.959Z,3.33
2022-11-29T08:07:49.391Z,3.03
2022-11-29T08:10:51.079Z,3.10
2022-11-29T08:13:58.281Z,2.90
2022-11-29T08:16:59.945Z,2.70
2022-11-29T08:20:04.273Z,2.58
2022-11-29T08:23:06.359Z,2.80
2022-11-29T08:26:07.994Z,3.00
2022-11-29T08:29:09.874Z,2.42
2022-11-29T08:32:11.741Z,3.08
2022-11-29T08:35:13.458Z,3.00
2022-11-29T08:38:15.154Z,2.60
2022-11-29T08:41:17.900Z,2.72
2022-11-29T08:44:19.654Z,2.45
2022-11-29T08:47:36.421Z,2.78
2022-11-29T08:50:38.069Z,3.30
2022-11-29T08:53:43.349Z,2.58
2022-11-29T08:57:37.325Z,2.75
2022-11-29T09:00:07.972Z,3.13
2022-11-29T09:03:28.488Z,3.40
2022-11-29T09:06:37.133Z,3.20
2022-11-29T09:09:38.868Z,3.20
2022-11-29T09:12:40.718Z,3.25
2022-11-29T09:15:43.701Z,2.97
2022-11-29T09:18:51.289Z,2.78
2022-11-29T09:21:54.059Z,2.90
2022-11-29T09:24:55.821Z,3.53
2022-11-29T09:28:01.822Z,3.22
2022-11-29T09:31:13.184Z,2.75
2022-11-29T09:34:16.481Z,2.80
2022-11-29T09:37:18.042Z,3.00
2022-11-29T09:40:25.543Z,3.22
2022-11-29T09:43:37.259Z,2.78
2022-11-29T09:46:39.366Z,3.30
2022-11-29T09:50:18.938Z,3.75
2022-11-29T09:53:36.003Z,2.95
2022-11-29T09:59:57.132Z,3.67
2022-11-29T10:03:09.881Z,3.90
2022-11-29T10:06:38.706Z,4.10
2022-11-29T10:10:08.471Z,4.50
2022-11-29T10:13:27.924Z,3.97
2022-11-29T10:16:44.831Z,3.97
2022-11-29T10:19:52.805Z,5.32
2022-11-29T10:23:00.099Z,5.53
2022-11-29T10:26:02.190Z,6.22
2022-11-29T10:29:04.310Z,4.70
2022-11-29T10:32:13.838Z,4.40
2022-11-29T10:35:19.270Z,4.65
2022-11-29T10:38:36.281Z,5.32
2022-11-29T10:44:40.234Z,4.93
2022-11-29T10:47:43.270Z,8.55
2022-11-29T10:50:48.681Z,5.93
2022-11-29T10:53:54.600Z,5.65
2022-11-29T10:56:58.945Z,7.28
2022-11-29T11:00:08.761Z,5.53
2022-11-29T11:03:38.207Z,6.22
2022-11-29T11:06:46.292Z,5.93
2022-11-29T11:09:51.545Z,5.78
2022-11-29T11:13:19.600Z,5.35
2022-11-29T11:16:25.769Z,6.65
2022-11-29T11:19:32.891Z,6.68
2022-11-29T11:22:39.327Z,7.05
2022-11-29T11:25:41.098Z,6.93
2022-11-29T11:28:56.401Z,9.40
2022-11-29T11:31:59.784Z,7.00
2022-11-29T11:35:02.324Z,6.22
2022-11-29T11:38:04.059Z,6.13
2022-11-29T11:41:11.768Z,6.38
2022-11-29T11:44:51.999Z,6.38
2022-11-29T11:48:00.093Z,6.43
2022-11-29T11:51:02.090Z,6.70
2022-11-29T11:54:03.866Z,7.80
2022-11-29T11:57:15.871Z,7.78
2022-11-29T12:01:03.063Z,6.75
2022-11-29T12:04:22.897Z,6.80
2022-11-29T12:08:06.097Z,6.28
2022-11-29T12:11:07.220Z,5.93
2022-11-29T12:14:24.110Z,6.10
2022-11-29T12:17:45.562Z,5.63
2022-11-29T12:20:53.202Z,6.68
2022-11-29T12:24:02.263Z,5.53
2022-11-29T12:27:05.716Z,5.28
2022-11-29T12:30:15.255Z,5.47
2022-11-29T12:33:35.993Z,5.32
2022-11-29T12:36:40.669Z,5.18
2022-11-29T12:39:52.848Z,6.18
2022-11-29T12:43:15.380Z,4.75
2022-11-29T12:46:28.686Z,4.68
2022-11-29T12:49:52.247Z,4.72
2022-11-29T12:53:15.724Z,6.32
2022-11-29T12:56:35.981Z,5.20
2022-11-29T13:00:02.499Z,5.60
2022-11-29T13:03:28.388Z,5.50
2022-11-29T13:06:46.753Z,5.28
2022-11-29T13:09:51.299Z,5.78
2022-11-29T13:12:58.589Z,5.03
2022-11-29T13:16:35.301Z,5.15
2022-11-29T13:20:17.326Z,5.70
2022-11-29T13:23:39.103Z,5.32
2022-11-29T13:26:44.815Z,5.35
2022-11-29T13:29:47.705Z,5.50
2022-11-29T13:33:16.593Z,5.93
2022-11-29T13:36:42.176Z,7.43
2022-11-29T13:39:46.833Z,5.35
2022-11-29T13:43:30.292Z,5.18
2022-11-29T13:46:46.402Z,6.55
2022-11-29T13:49:54.445Z,6.15
2022-11-29T13:53:04.818Z,5.50
2022-11-29T13:56:06.938Z,8.50
2022-11-29T13:59:17.520Z,4.72
2022-11-29T14:02:31.790Z,5.28
2022-11-29T14:05:40.442Z,5.03
2022-11-29T14:12:28.953Z,5.57
2022-11-29T14:15:33.346Z,8.88
2022-11-29T14:18:38.446Z,5.47
2022-11-29T14:21:59.027Z,4.65
2022-11-29T14:25:11.781Z,4.93
2022-11-29T14:28:27.860Z,5.18
2022-11-29T14:31:51.344Z,4.13
2022-11-29T14:35:21.564Z,4.05
2022-11-29T14:38:47.283Z,4.60
2022-11-29T14:42:17.039Z,4.70
2022-11-29T14:45:27.083Z,4.63
2022-11-29T14:48:32.937Z,4.18
2022-11-29T14:51:36.425Z,3.87
2022-11-29T14:55:02.656Z,4.13
2022-11-29T15:02:21.088Z,5.57
2022-11-29T15:05:35.194Z,5.82
2022-11-29T15:09:01.901Z,7.97
2022-11-29T15:12:18.710Z,7.40
2022-11-29T15:15:57.904Z,6.53
2022-11-29T15:19:31.056Z,7.10
2022-11-29T15:23:02.073Z,9.20
2022-11-29T15:26:04.312Z,8.13
2022-11-29T15:29:19.062Z,8.82
2022-11-29T15:56:04.220Z,8.75
2022-11-29T16:00:19.969Z,7.28
2022-11-29T16:18:20.288Z,6.90
2022-11-29T16:21:29.860Z,7.57
2022-11-29T16:24:33.921Z,7.50
2022-11-29T16:28:23.762Z,7.60
2022-11-29T16:32:00.531Z,7.90
2022-11-29T16:35:50.302Z,7.70
2022-11-29T16:39:39.364Z,7.43
2022-11-29T16:43:43.398Z,6.03
2022-11-29T16:50:47.043Z,5.97
2022-11-29T16:54:27.739Z,6.72
2022-11-29T16:58:24.037Z,6.00
2022-11-29T17:06:15.066Z,7.15
2022-11-29T17:12:04.124Z,7.70
2022-11-29T17:22:15.880Z,8.57
2022-11-29T17:26:02.078Z,7.30
2022-11-29T17:29:49.940Z,7.13
2022-11-29T17:33:25.976Z,7.32
2022-11-29T17:36:41.324Z,7.57
2022-11-29T17:39:55.161Z,6.38
2022-11-29T17:43:09.245Z,8.00
2022-11-29T17:46:49.577Z,9.82
2022-11-29T17:49:51.271Z,9.10
2022-11-29T17:52:53.218Z,7.10
2022-11-29T17:55:55.033Z,7.03
2022-11-29T17:58:59.002Z,7.97
2022-11-29T18:02:02.214Z,7.35
2022-11-29T18:05:07.452Z,8.48
2022-11-29T18:08:09.511Z,8.10
2022-11-29T18:11:13.584Z,7.72
2022-11-29T18:14:18.648Z,6.45
2022-11-29T18:17:20.374Z,7.25
2022-11-29T18:20:22.279Z,6.95
2022-11-29T18:23:24.179Z,7.90
2022-11-29T18:26:27.617Z,8.23
2022-11-29T18:29:34.174Z,9.15
2022-11-29T18:32:39.357Z,8.60
2022-11-29T18:35:41.019Z,7.90
2022-11-29T18:38:44.419Z,7.75
2022-11-29T18:41:50.258Z,7.88
2022-11-29T18:44:55.976Z,9.13
2022-11-29T18:48:00.618Z,8.18
2022-11-29T18:51:05.134Z,8.80
2022-11-29T18:54:06.931Z,7.43
2022-11-29T18:57:08.641Z,7.70
2022-11-29T19:00:11.067Z,7.63
2022-11-29T19:03:12.987Z,7.70
2022-11-29T19:06:17.468Z,6.55
2022-11-29T19:09:21.644Z,7.47
2022-11-29T19:12:23.673Z,8.50
2022-11-29T19:15:25.848Z,7.15
2022-11-29T19:18:29.261Z,5.60
2022-11-29T19:21:34.788Z,5.90
2022-11-29T19:24:41.292Z,7.32
2022-11-29T19:27:45.886Z,5.88
2022-11-29T19:30:54.910Z,7.13
2022-11-29T19:33:57.749Z,7.78
2022-11-29T19:36:59.718Z,7.40
2022-11-29T19:40:01.495Z,6.07
2022-11-29T19:43:03.214Z,7.57
2022-11-29T19:46:12.691Z,9.75
2022-11-29T19:49:14.821Z,8.45
2022-11-29T19:52:16.474Z,9.98
2022-11-29T19:55:18.162Z,9.05
2022-11-29T19:58:20.901Z,11.10
2022-11-29T20:01:25.439Z,9.88
2022-11-29T20:04:27.455Z,10.45
2022-11-29T20:07:29.161Z,11.98
2022-11-29T20:10:30.869Z,12.23
2022-11-29T20:13:32.906Z,12.13
2022-11-29T20:16:34.762Z,11.93
2022-11-29T20:19:36.553Z,11.88
2022-11-29T20:22:38.374Z,11.02
2022-11-29T20:25:40.035Z,10.75
2022-11-29T20:28:41.947Z,9.43
2022-11-29T20:31:50.058Z,11.13
2022-11-29T20:34:53.052Z,11.38
2022-11-29T20:38:40.506Z,11.10
2022-11-29T20:42:05.411Z,10.40
2022-11-29T20:45:09.100Z,10.98
2022-11-29T20:48:17.151Z,10.98
2022-11-29T20:51:22.484Z,10.52
2022-11-29T20:54:24.229Z,12.45
2022-11-29T20:57:25.917Z,9.48
2022-11-29T21:00:27.599Z,8.80
2022-11-29T21:03:30.203Z,8.70
2022-11-29T21:06:34.396Z,10.07
2022-11-29T21:09:36.065Z,10.32
2022-11-29T21:12:38.728Z,9.35
2022-11-29T21:15:40.934Z,8.32
2022-11-29T21:18:43.012Z,9.27
2022-11-29T21:22:19.914Z,8.70
2022-11-29T21:25:42.852Z,9.13
2022-11-29T21:28:57.584Z,10.20
2022-11-29T21:32:00.924Z,9.75
2022-11-29T21:35:03.920Z,9.60
2022-11-29T21:38:06.835Z,9.82
2022-11-29T21:41:08.416Z,9.95
2022-11-29T21:44:10.106Z,10.40
2022-11-29T21:47:11.982Z,9.45
2022-11-29T21:50:13.967Z,9.05
2022-11-29T21:53:15.613Z,8.60
2022-11-29T21:56:17.400Z,7.82
2022-11-29T21:59:19.051Z,8.52
2022-11-29T22:02:20.920Z,9.77
2022-11-29T22:05:22.801Z,7.43
2022-11-29T22:08:24.687Z,8.60
2022-11-29T22:11:34.087Z,9.25
2022-11-29T22:14:35.800Z,9.07
2022-11-29T22:17:37.442Z,8.73
2022-11-29T22:20:39.285Z,9.38
2022-11-29T22:23:41.181Z,9.50
2022-11-29T22:26:43.991Z,7.90
2022-11-29T22:29:45.979Z,9.55
2022-11-29T22:32:48.920Z,9.18
2022-11-29T22:35:50.520Z,10.00
2022-11-29T22:38:52.710Z,9.13
2022-11-29T22:41:55.421Z,10.27
2022-11-29T22:44:58.830Z,10.85
2022-11-29T22:48:01.310Z,10.13
2022-11-29T22:51:07.529Z,10.38
2022-11-29T22:54:11.851Z,10.32
2022-11-29T22:57:13.831Z,9.32
2022-11-29T23:00:15.577Z,8.48
2022-11-29T23:03:17.465Z,9.35
2022-11-29T23:06:22.093Z,9.73
2022-11-29T23:09:23.895Z,9.77
2022-11-29T23:12:25.992Z,8.85
2022-11-29T23:15:28.060Z,8.15
2022-11-29T23:18:30.231Z,8.93
2022-11-29T23:21:35.290Z,8.23
2022-11-29T23:24:39.227Z,8.38
2022-11-29T23:27:41.080Z,8.25
2022-11-29T23:30:43.212Z,7.63
2022-11-29T23:33:45.497Z,8.80
2022-11-29T23:36:52.634Z,7.85
2022-11-29T23:39:54.981Z,8.73
2022-11-29T23:42:56.678Z,7.68
2022-11-29T23:45:58.922Z,7.82
2022-11-29T23:49:00.701Z,7.63
2022-11-29T23:52:02.648Z,8.52
2022-11-29T23:55:05.014Z,9.02
2022-11-29T23:58:07.027Z,7.72
